Holly Ann — WDE9094 — position and weather

sailwx.info

Track history (hours):
 
Tides and Currents Weather Stations Pressure Air Temp Water Temp Dewpoint Dewpoint Depression Visibility Wind Speed Wind Dir Waves Ship Positions

Holly Ann

Owner: Manke Tug and Barge Co., Inc., Shelton, WA. More information available from US FCC via Universal Licensing System and Coast Guard Vessel Documentation Center.

Last reported at 2017-Mar-20 16:33 UTC. Time now 2017-Mar-24 16:11 UTC.
Position N 47°38' W 122°20'.

; draft 4.5 m.

Type: Towing. MMSI: 367413350.

Date/timePositionNaut miles runAvg speedWind from/ knotsBaromVisibWave heightAir tempDewpointWater temp
2017-Mar-20 16:33N 47°38' W 122°20'3 3.4
2017-Mar-20 15:33N 47°40' W 122°24'5 5.2
2017-Mar-20 14:33N 47°35' W 122°26'10 9.6
2017-Mar-20 13:33N 47°26' W 122°23'8 8.4
2017-Mar-20 12:33N 47°18' W 122°26'  
2017-Mar-18 00:19N 47°17' W 122°26'5 6.7
2017-Mar-17 23:33N 47°22' W 122°24'8 8.0
2017-Mar-17 22:34N 47°30' W 122°26'6 5.7
2017-Mar-17 21:34N 47°35' W 122°22'1 0.8
2017-Mar-17 20:34N 47°34' W 122°21'0 0.0
2017-Mar-17 19:34N 47°34' W 122°21'0 0.0
2017-Mar-17 18:33N 47°34' W 122°21'0 0.0
2017-Mar-17 17:34N 47°34' W 122°21'0 0.0
2017-Mar-17 16:34N 47°34' W 122°21'0 0.0
2017-Mar-17 15:33N 47°34' W 122°21'0 0.0
2017-Mar-17 14:34N 47°34' W 122°21'0 0.0
2017-Mar-17 13:33N 47°34' W 122°21'0 0.0
2017-Mar-17 12:34N 47°34' W 122°21'0 0.0
2017-Mar-17 11:34N 47°34' W 122°21'0 0.2
2017-Mar-17 10:33N 47°34' W 122°21'3 3.4
2017-Mar-17 09:34N 47°33' W 122°26'8 8.4
2017-Mar-17 08:34N 47°26' W 122°32'9 8.8
2017-Mar-17 07:32N 47°17' W 122°33'4 0.1
2017-Mar-16 00:33N 47°13' W 122°35'8 8.2
2017-Mar-15 23:33N 47°21' W 122°32'5 5.4
2017-Mar-15 22:33N 47°27' W 122°32'5 5.3
2017-Mar-15 21:34N 47°32' W 122°28'6 5.6
2017-Mar-15 20:34N 47°36' W 122°23'3 3.4
2017-Mar-15 19:34N 47°33' W 122°21'0 0.0
2017-Mar-15 18:34N 47°33' W 122°21'0 0.0
2017-Mar-15 17:33N 47°33' W 122°21'0 0.0
2017-Mar-15 16:34N 47°33' W 122°21'0 0.0
2017-Mar-15 15:33N 47°33' W 122°21'0 0.0
2017-Mar-15 14:33N 47°33' W 122°21'0 0.0
2017-Mar-15 13:34N 47°33' W 122°21'0 0.0
2017-Mar-15 12:33N 47°33' W 122°21'0 0.0
2017-Mar-15 11:33N 47°33' W 122°21'0 0.0
2017-Mar-15 10:33N 47°33' W 122°21'0 0.0
2017-Mar-15 09:34N 47°33' W 122°21'2 1.7
2017-Mar-15 08:34N 47°35' W 122°22'6 5.8
2017-Mar-15 07:33N 47°31' W 122°29'9 9.0
2017-Mar-15 06:33N 47°23' W 122°32'1010.0
2017-Mar-15 05:34N 47°13' W 122°36'3 0.2
2017-Mar-14 13:25N 47°11' W 122°39'8 9.2
2017-Mar-14 12:32N 47°19' W 122°33'  
Track history (hours):
 
Tides and Currents Weather Stations Pressure Air Temp Water Temp Dewpoint Dewpoint Depression Visibility Wind Speed Wind Dir Waves Ship Positions

Holly Ann

Owner: Manke Tug and Barge Co., Inc., Shelton, WA. More information available from US FCC via Universal Licensing System and Coast Guard Vessel Documentation Center.

Last reported at 2017-Mar-20 16:33 UTC. Time now 2017-Mar-24 16:11 UTC.
Position N 47°38' W 122°20'.

; draft 4.5 m.

Type: Towing. MMSI: 367413350.

Date/timePositionNaut miles runAvg speedWind from/ knotsBaromVisibWave heightAir tempDewpointWater temp
2017-Mar-20 16:33N 47°38' W 122°20'3 3.4
2017-Mar-20 15:33N 47°40' W 122°24'5 5.2
2017-Mar-20 14:33N 47°35' W 122°26'10 9.6
2017-Mar-20 13:33N 47°26' W 122°23'8 8.4
2017-Mar-20 12:33N 47°18' W 122°26'  
2017-Mar-18 00:19N 47°17' W 122°26'5 6.7
2017-Mar-17 23:33N 47°22' W 122°24'8 8.0
2017-Mar-17 22:34N 47°30' W 122°26'6 5.7
2017-Mar-17 21:34N 47°35' W 122°22'1 0.8
2017-Mar-17 20:34N 47°34' W 122°21'0 0.0
2017-Mar-17 19:34N 47°34' W 122°21'0 0.0
2017-Mar-17 18:33N 47°34' W 122°21'0 0.0
2017-Mar-17 17:34N 47°34' W 122°21'0 0.0
2017-Mar-17 16:34N 47°34' W 122°21'0 0.0
2017-Mar-17 15:33N 47°34' W 122°21'0 0.0
2017-Mar-17 14:34N 47°34' W 122°21'0 0.0
2017-Mar-17 13:33N 47°34' W 122°21'0 0.0
2017-Mar-17 12:34N 47°34' W 122°21'0 0.0
2017-Mar-17 11:34N 47°34' W 122°21'0 0.2
2017-Mar-17 10:33N 47°34' W 122°21'3 3.4
2017-Mar-17 09:34N 47°33' W 122°26'8 8.4
2017-Mar-17 08:34N 47°26' W 122°32'9 8.8
2017-Mar-17 07:32N 47°17' W 122°33'4 0.1
2017-Mar-16 00:33N 47°13' W 122°35'8 8.2
2017-Mar-15 23:33N 47°21' W 122°32'5 5.4
2017-Mar-15 22:33N 47°27' W 122°32'5 5.3
2017-Mar-15 21:34N 47°32' W 122°28'6 5.6
2017-Mar-15 20:34N 47°36' W 122°23'3 3.4
2017-Mar-15 19:34N 47°33' W 122°21'0 0.0
2017-Mar-15 18:34N 47°33' W 122°21'0 0.0
2017-Mar-15 17:33N 47°33' W 122°21'0 0.0
2017-Mar-15 16:34N 47°33' W 122°21'0 0.0
2017-Mar-15 15:33N 47°33' W 122°21'0 0.0
2017-Mar-15 14:33N 47°33' W 122°21'0 0.0
2017-Mar-15 13:34N 47°33' W 122°21'0 0.0
2017-Mar-15 12:33N 47°33' W 122°21'0 0.0
2017-Mar-15 11:33N 47°33' W 122°21'0 0.0
2017-Mar-15 10:33N 47°33' W 122°21'0 0.0
2017-Mar-15 09:34N 47°33' W 122°21'2 1.7
2017-Mar-15 08:34N 47°35' W 122°22'6 5.8
2017-Mar-15 07:33N 47°31' W 122°29'9 9.0
2017-Mar-15 06:33N 47°23' W 122°32'1010.0
2017-Mar-15 05:34N 47°13' W 122°36'3 0.2
2017-Mar-14 13:25N 47°11' W 122°39'8 9.2
2017-Mar-14 12:32N 47°19' W 122°33'  

Dump ship's entire track history